createdAt,value
2016-07-10T00:00:35.548Z,1158.14
2016-07-10T00:01:35.528Z,1158.14
2016-07-10T00:02:35.517Z,1158.18
2016-07-10T00:03:35.545Z,1158.19
2016-07-10T00:04:35.581Z,1158.18
2016-07-10T00:05:35.555Z,1158.16
2016-07-10T00:06:35.533Z,1158.17
2016-07-10T00:07:35.788Z,1158.22
2016-07-10T00:08:35.549Z,1158.23
2016-07-10T00:09:35.549Z,1158.27
2016-07-10T00:10:35.530Z,1158.26
2016-07-10T00:11:35.563Z,1158.31
2016-07-10T00:12:35.533Z,1158.3
2016-07-10T00:13:35.561Z,1158.33
2016-07-10T00:14:35.556Z,1158.32
2016-07-10T00:15:35.526Z,1158.33
2016-07-10T00:16:35.533Z,1158.37
2016-07-10T00:17:35.547Z,1158.36
2016-07-10T00:18:35.535Z,1158.37
2016-07-10T00:19:35.531Z,1158.38
2016-07-10T00:20:35.548Z,1158.38
2016-07-10T00:21:35.547Z,1158.31
2016-07-10T00:22:35.533Z,1158.3
2016-07-10T00:23:35.548Z,1158.31
2016-07-10T00:24:35.532Z,1158.34
2016-07-10T00:25:35.536Z,1158.38
2016-07-10T00:26:35.548Z,1158.37
2016-07-10T00:27:35.553Z,1158.33
2016-07-10T00:28:35.541Z,1158.35
2016-07-10T00:29:35.544Z,1158.39
2016-07-10T00:30:35.547Z,1158.39
2016-07-10T00:31:35.548Z,1158.39
2016-07-10T00:32:35.554Z,1158.4
2016-07-10T00:33:35.557Z,1158.48
2016-07-10T00:34:35.549Z,1158.4
2016-07-10T00:35:35.549Z,1158.41
2016-07-10T00:36:35.555Z,1158.45
2016-07-10T00:37:35.551Z,1158.43
2016-07-10T00:38:35.556Z,1158.37
2016-07-10T00:39:35.562Z,1158.41
2016-07-10T00:40:35.552Z,1158.46
2016-07-10T00:41:35.556Z,1158.48
2016-07-10T00:42:35.548Z,1158.5
2016-07-10T00:43:35.560Z,1158.48
2016-07-10T00:44:35.567Z,1158.49
2016-07-10T00:45:35.555Z,1158.52
2016-07-10T00:46:35.583Z,1158.52
2016-07-10T00:47:35.556Z,1158.52
2016-07-10T00:48:35.563Z,1158.52
2016-07-10T00:49:35.555Z,1158.54
2016-07-10T00:50:35.565Z,1158.55
2016-07-10T00:51:35.582Z,1158.55
2016-07-10T00:52:35.556Z,1158.57
2016-07-10T00:53:35.564Z,1158.55
2016-07-10T00:54:35.570Z,1158.59
2016-07-10T00:55:35.564Z,1158.59
2016-07-10T00:56:35.590Z,1158.6
2016-07-10T00:57:35.573Z,1158.61
2016-07-10T00:58:35.580Z,1158.6
2016-07-10T00:59:35.573Z,1158.61
2016-07-10T01:00:35.579Z,1158.62
2016-07-10T01:01:35.585Z,1158.7
2016-07-10T01:02:35.584Z,1158.71
2016-07-10T01:03:35.575Z,1158.74
2016-07-10T01:04:35.579Z,1158.75
2016-07-10T01:05:35.577Z,1158.75
2016-07-10T01:06:35.580Z,1158.74
2016-07-10T01:07:35.564Z,1158.77
2016-07-10T01:08:35.569Z,1158.8
2016-07-10T01:09:35.585Z,1158.8
2016-07-10T01:10:35.582Z,1158.77
2016-07-10T01:11:35.569Z,1158.76
2016-07-10T01:12:35.576Z,1158.81
2016-07-10T01:13:35.578Z,1158.79
2016-07-10T01:14:35.588Z,1158.8
2016-07-10T01:15:35.580Z,1158.77
2016-07-10T01:16:35.580Z,1158.81
2016-07-10T01:17:35.582Z,1158.79
2016-07-10T01:18:35.589Z,1158.81
2016-07-10T01:19:35.615Z,1158.8
2016-07-10T01:20:35.589Z,1158.82
2016-07-10T01:21:35.600Z,1158.8
2016-07-10T01:22:35.617Z,1158.84
2016-07-10T01:23:35.595Z,1158.82
2016-07-10T01:24:35.619Z,1158.75
2016-07-10T01:25:35.589Z,1158.71
2016-07-10T01:26:35.596Z,1158.69
2016-07-10T01:27:35.607Z,1158.7
2016-07-10T01:28:35.627Z,1158.64
2016-07-10T01:29:35.604Z,1158.58
2016-07-10T01:30:35.615Z,1158.61
2016-07-10T01:31:35.617Z,1158.62
2016-07-10T01:32:35.613Z,1158.62
2016-07-10T01:33:35.613Z,1158.57
2016-07-10T01:34:35.618Z,1158.56
2016-07-10T01:35:35.621Z,1158.6
2016-07-10T01:36:35.615Z,1158.52
2016-07-10T01:37:35.612Z,1158.55
2016-07-10T01:38:35.612Z,1158.52
2016-07-10T01:39:35.615Z,1158.52
2016-07-10T01:40:35.615Z,1158.52
2016-07-10T01:41:35.621Z,1158.52
2016-07-10T01:42:35.642Z,1158.43
2016-07-10T01:43:35.617Z,1158.4
2016-07-10T01:44:35.613Z,1158.45
2016-07-10T01:45:35.604Z,1158.31
2016-07-10T01:46:35.613Z,1158.3
2016-07-10T01:47:35.613Z,1158.24
2016-07-10T01:48:35.633Z,1158.23
2016-07-10T01:49:35.617Z,1158.21
2016-07-10T01:50:35.624Z,1158.18
2016-07-10T01:51:35.619Z,1158.14
2016-07-10T01:52:35.619Z,1158.09
2016-07-10T01:53:35.616Z,1158.12
2016-07-10T01:54:35.617Z,1158.09
2016-07-10T01:55:35.631Z,1158.03
2016-07-10T01:56:35.625Z,1158.08
2016-07-10T01:57:35.631Z,1158.04
2016-07-10T01:58:35.622Z,1158.04
2016-07-10T01:59:35.631Z,1158.01
2016-07-10T02:00:35.642Z,1157.95
2016-07-10T02:01:35.627Z,1157.95
2016-07-10T02:02:35.643Z,1157.85
2016-07-10T02:03:35.639Z,1157.88
2016-07-10T02:04:35.647Z,1157.83
2016-07-10T02:05:35.645Z,1157.77
2016-07-10T02:06:35.648Z,1157.76
2016-07-10T02:07:35.645Z,1157.72
2016-07-10T02:08:35.643Z,1157.7
2016-07-10T02:09:35.638Z,1157.68
2016-07-10T02:10:35.643Z,1157.61
2016-07-10T02:11:35.644Z,1157.6
2016-07-10T02:12:35.627Z,1157.53
2016-07-10T02:13:35.643Z,1157.45
2016-07-10T02:14:35.646Z,1157.44
2016-07-10T02:15:35.645Z,1157.37
2016-07-10T02:16:35.634Z,1157.39
2016-07-10T02:17:35.658Z,1157.31
2016-07-10T02:18:35.635Z,1157.26
2016-07-10T02:19:35.644Z,1157.2
2016-07-10T02:20:35.645Z,1157.14
2016-07-10T02:21:35.651Z,1157.04
2016-07-10T02:22:35.648Z,1156.95
2016-07-10T02:23:35.658Z,1156.96
2016-07-10T02:24:35.647Z,1156.83
2016-07-10T02:25:35.642Z,1156.84
2016-07-10T02:26:35.647Z,1156.72
2016-07-10T02:27:35.654Z,1156.66
2016-07-10T02:28:35.657Z,1156.6
2016-07-10T02:29:35.651Z,1156.46
2016-07-10T02:30:35.669Z,1156.41
2016-07-10T02:31:35.664Z,1156.42
2016-07-10T02:32:35.652Z,1156.31
2016-07-10T02:33:35.659Z,1156.23
2016-07-10T02:34:35.654Z,1156.17
2016-07-10T02:35:35.660Z,1156.06
2016-07-10T02:36:35.672Z,1156.03
2016-07-10T02:37:35.658Z,1155.97
2016-07-10T02:38:35.676Z,1155.89
2016-07-10T02:39:35.675Z,1155.77
2016-07-10T02:40:35.668Z,1155.71
2016-07-10T02:41:35.671Z,1155.63
2016-07-10T02:42:35.664Z,1155.54
2016-07-10T02:43:35.681Z,1155.52
2016-07-10T02:44:35.672Z,1155.47
2016-07-10T02:45:35.674Z,1155.28
2016-07-10T02:46:35.685Z,1155.2
2016-07-10T02:47:35.688Z,1155.15
2016-07-10T02:48:35.666Z,1155.06
2016-07-10T02:49:35.674Z,1154.93
2016-07-10T02:50:35.674Z,1154.83
2016-07-10T02:51:35.673Z,1154.79
2016-07-10T02:52:35.682Z,1154.62
2016-07-10T02:53:35.683Z,1154.5
2016-07-10T02:54:35.676Z,1154.4
2016-07-10T02:55:35.678Z,1154.37
2016-07-10T02:56:35.677Z,1154.31
2016-07-10T02:57:35.680Z,1154.14
2016-07-10T02:58:35.677Z,1154.09
2016-07-10T02:59:35.679Z,1154.05
2016-07-10T03:00:35.684Z,1153.94
2016-07-10T03:01:35.707Z,1153.93
2016-07-10T03:02:35.675Z,1153.78
2016-07-10T03:03:35.689Z,1153.73
2016-07-10T03:04:35.680Z,1153.71
2016-07-10T03:05:35.699Z,1153.64
2016-07-10T03:06:35.691Z,1153.63
2016-07-10T03:07:35.699Z,1153.48
2016-07-10T03:08:35.710Z,1153.49
2016-07-10T03:09:35.686Z,1153.43
2016-07-10T03:10:35.690Z,1153.35
2016-07-10T03:11:35.689Z,1153.26
2016-07-10T03:12:35.708Z,1153.27
2016-07-10T03:13:35.728Z,1153.18
2016-07-10T03:14:35.690Z,1153.14
2016-07-10T03:15:35.707Z,1153.13
2016-07-10T03:16:35.711Z,1153.01
2016-07-10T03:17:35.708Z,1153.05
2016-07-10T03:18:35.740Z,1153.01
2016-07-10T03:19:35.707Z,1153.04
2016-07-10T03:20:35.737Z,1152.91
2016-07-10T03:21:35.703Z,1152.87
2016-07-10T03:22:35.739Z,1152.85
2016-07-10T03:23:35.701Z,1152.87
2016-07-10T03:24:35.723Z,1152.76
2016-07-10T03:25:35.712Z,1152.74
2016-07-10T03:26:35.705Z,1152.82
2016-07-10T03:27:35.709Z,1152.84
2016-07-10T03:28:35.706Z,1152.87
2016-07-10T03:29:35.757Z,1152.95
2016-07-10T03:30:35.720Z,1152.88
2016-07-10T03:31:35.728Z,1152.93
2016-07-10T03:32:35.710Z,1153.01
2016-07-10T03:33:35.716Z,1153.09
2016-07-10T03:34:35.717Z,1153.09
2016-07-10T03:35:35.728Z,1153.08
2016-07-10T03:36:35.712Z,1153.15
2016-07-10T03:37:35.725Z,1153.14
2016-07-10T03:38:35.707Z,1153.26
2016-07-10T03:39:35.717Z,1153.34
2016-07-10T03:40:35.712Z,1153.3
2016-07-10T03:41:35.710Z,1153.51
2016-07-10T03:42:35.763Z,1153.66
2016-07-10T03:43:35.715Z,1153.74
2016-07-10T03:44:35.722Z,1153.9
2016-07-10T03:45:35.745Z,1154.05
2016-07-10T03:46:35.764Z,1154.14
2016-07-10T03:47:35.769Z,1154.31
2016-07-10T03:48:35.739Z,1154.48
2016-07-10T03:49:35.746Z,1154.6
2016-07-10T03:50:35.740Z,1154.72
2016-07-10T03:51:35.771Z,1154.8
2016-07-10T03:52:35.767Z,1154.92
2016-07-10T03:53:35.776Z,1154.99
2016-07-10T03:54:35.750Z,1155.06
2016-07-10T03:55:35.752Z,1155.1
2016-07-10T03:56:35.750Z,1155.21
2016-07-10T03:57:35.755Z,1155.3
2016-07-10T03:58:35.729Z,1155.34
2016-07-10T03:59:35.739Z,1155.41
2016-07-10T04:00:35.726Z,1155.55
2016-07-10T04:01:35.750Z,1155.65
2016-07-10T04:02:35.741Z,1155.68
2016-07-10T04:03:35.733Z,1155.75
2016-07-10T04:04:35.740Z,1155.86
2016-07-10T04:05:35.748Z,1155.91
2016-07-10T04:06:35.731Z,1156
2016-07-10T04:07:35.727Z,1156.04
2016-07-10T04:08:35.752Z,1156.11
2016-07-10T04:09:35.740Z,1156.19
2016-07-10T04:10:35.739Z,1156.22
2016-07-10T04:11:35.740Z,1156.27
2016-07-10T04:12:35.738Z,1156.39
2016-07-10T04:13:35.751Z,1156.4
2016-07-10T04:14:35.751Z,1156.5
2016-07-10T04:15:35.742Z,1156.51
2016-07-10T04:16:35.750Z,1156.57
2016-07-10T04:17:35.756Z,1156.63
2016-07-10T04:18:35.746Z,1156.67
2016-07-10T04:19:35.742Z,1156.67
2016-07-10T04:20:35.740Z,1156.76
2016-07-10T04:21:35.750Z,1156.79
2016-07-10T04:22:35.748Z,1156.81
2016-07-10T04:23:35.780Z,1156.86
2016-07-10T04:24:35.750Z,1156.99
2016-07-10T04:25:35.749Z,1156.97
2016-07-10T04:26:35.771Z,1157.07
2016-07-10T04:27:35.774Z,1157.1
2016-07-10T04:28:35.771Z,1157.12
2016-07-10T04:29:35.755Z,1157.07
2016-07-10T04:30:35.769Z,1157.14
2016-07-10T04:31:35.762Z,1157.21
2016-07-10T04:32:35.768Z,1157.22
2016-07-10T04:33:35.775Z,1157.29
2016-07-10T04:34:35.772Z,1157.36
2016-07-10T04:35:35.770Z,1157.37
2016-07-10T04:36:35.773Z,1157.37
2016-07-10T04:37:35.758Z,1157.42
2016-07-10T04:38:35.771Z,1157.42
2016-07-10T04:39:35.772Z,1157.45
2016-07-10T04:40:35.768Z,1157.47
2016-07-10T04:41:35.771Z,1157.43
2016-07-10T04:42:35.776Z,1157.43
2016-07-10T04:43:35.771Z,1157.42
2016-07-10T04:44:35.777Z,1157.35
2016-07-10T04:45:35.770Z,1157.26
2016-07-10T04:46:35.775Z,1157.13
2016-07-10T04:47:35.763Z,1157
2016-07-10T04:48:35.775Z,1156.84
2016-07-10T04:49:35.777Z,1156.69
2016-07-10T04:50:35.772Z,1156.46
2016-07-10T04:51:35.778Z,1156.29
2016-07-10T04:52:35.772Z,1156.12
2016-07-10T04:53:35.775Z,1155.98
2016-07-10T04:54:35.773Z,1155.79
2016-07-10T04:55:35.778Z,1155.63
2016-07-10T04:56:35.778Z,1155.51
2016-07-10T04:57:35.800Z,1155.26
2016-07-10T04:58:35.806Z,1155.09
2016-07-10T04:59:35.791Z,1154.99
2016-07-10T05:00:35.807Z,1154.86
2016-07-10T05:01:35.799Z,1154.86
2016-07-10T05:02:35.802Z,1154.88
2016-07-10T05:03:35.803Z,1154.92
2016-07-10T05:04:35.802Z,1155
2016-07-10T05:05:35.791Z,1155.06
2016-07-10T05:06:35.803Z,1155.03
2016-07-10T05:07:35.804Z,1155.12
2016-07-10T05:08:35.800Z,1155.15
2016-07-10T05:09:35.808Z,1155.16
2016-07-10T05:10:35.802Z,1155.15
2016-07-10T05:11:35.851Z,1155.07
2016-07-10T05:12:35.795Z,1154.98
2016-07-10T05:13:35.799Z,1154.83
2016-07-10T05:14:35.803Z,1154.69
2016-07-10T05:15:35.810Z,1154.71
2016-07-10T05:16:35.809Z,1154.65
2016-07-10T05:17:35.806Z,1154.53
2016-07-10T05:18:35.804Z,1154.32
2016-07-10T05:19:35.808Z,1154.14
2016-07-10T05:20:35.802Z,1153.9
2016-07-10T05:21:35.806Z,1153.68
2016-07-10T05:22:35.810Z,1153.44
2016-07-10T05:23:35.817Z,1153.14
2016-07-10T05:24:35.820Z,1152.74
2016-07-10T05:25:35.817Z,1152.43
2016-07-10T05:26:35.807Z,1152.01
2016-07-10T05:27:35.816Z,1151.55
2016-07-10T05:28:35.815Z,1151.15
2016-07-10T05:29:35.811Z,1150.58
2016-07-10T05:30:35.829Z,1149.98
2016-07-10T05:31:35.815Z,1149.32
2016-07-10T05:32:35.805Z,1148.46
2016-07-10T05:33:35.836Z,1147.23
2016-07-10T05:34:35.820Z,1145.9
2016-07-10T05:35:35.804Z,1144.24
2016-07-10T05:36:35.836Z,1142.55
2016-07-10T05:37:36.216Z,1140.63
2016-07-10T05:38:35.825Z,1138.41
2016-07-10T05:39:35.836Z,1136.13
2016-07-10T05:40:35.822Z,1133.74
2016-07-10T05:41:35.889Z,1131.85
2016-07-10T05:42:35.828Z,1129.96
2016-07-10T05:43:35.834Z,1128.42
2016-07-10T05:44:35.834Z,1127.43
2016-07-10T05:45:35.840Z,1127.17
2016-07-10T05:46:35.827Z,1127.04
2016-07-10T05:47:35.833Z,1127.22
2016-07-10T05:48:35.840Z,1127.36
2016-07-10T05:49:35.848Z,1127.64
2016-07-10T05:50:35.849Z,1127.77
2016-07-10T05:51:35.847Z,1128.31
2016-07-10T05:52:35.839Z,1128.32
2016-07-10T05:53:35.845Z,1127.87
2016-07-10T05:54:35.835Z,1126.58
2016-07-10T05:55:35.847Z,1125.32
2016-07-10T05:56:35.867Z,1123.98
2016-07-10T05:57:35.841Z,1123.43
2016-07-10T05:58:35.867Z,1123.45
2016-07-10T05:59:35.874Z,1124.62
2016-07-10T06:00:35.847Z,1125.35
2016-07-10T06:01:36.771Z,1125.21
2016-07-10T06:02:35.848Z,1124.43
2016-07-10T06:03:35.866Z,1123.52
2016-07-10T06:04:35.871Z,1122.41
2016-07-10T06:05:35.870Z,1121.1
2016-07-10T06:06:35.855Z,1119.68
2016-07-10T06:07:35.868Z,1118.19
2016-07-10T06:08:35.901Z,1117.07
2016-07-10T06:09:35.854Z,1116.37
2016-07-10T06:10:35.875Z,1115.51
2016-07-10T06:11:35.869Z,1114.61
2016-07-10T06:12:35.857Z,1113.73
2016-07-10T06:13:35.861Z,1112.44
2016-07-10T06:14:35.868Z,1110.71
2016-07-10T06:15:35.861Z,1108.79
2016-07-10T06:16:35.866Z,1107.11
2016-07-10T06:17:35.863Z,1105.77
2016-07-10T06:18:35.867Z,1103.49
2016-07-10T06:19:35.871Z,1101.65
2016-07-10T06:20:35.870Z,1100.14
2016-07-10T06:21:35.889Z,1098.5
2016-07-10T06:22:35.878Z,1096.57
2016-07-10T06:23:35.882Z,1095.28
2016-07-10T06:24:35.875Z,1093.66
2016-07-10T06:25:35.896Z,1092.39
2016-07-10T06:26:35.873Z,1091.3
2016-07-10T06:27:35.866Z,1090.48
2016-07-10T06:28:35.876Z,1089.96
2016-07-10T06:29:35.881Z,1089.43
2016-07-10T06:30:35.880Z,1088.37
2016-07-10T06:31:35.885Z,1087.1
2016-07-10T06:32:35.904Z,1084.83
2016-07-10T06:33:35.878Z,1076.63
2016-07-10T06:34:35.881Z,1056.62
2016-07-10T06:35:35.872Z,1022.26
2016-07-10T06:36:35.914Z,971.2
2016-07-10T06:37:35.897Z,905.16
2016-07-10T06:38:35.879Z,829.05
2016-07-10T06:39:35.903Z,753.46
2016-07-10T06:40:36.580Z,685.78
2016-07-10T06:41:35.891Z,619.75
2016-07-10T06:42:35.877Z,558.01
2016-07-10T06:43:35.900Z,498.31
2016-07-10T06:44:35.903Z,440.9
2016-07-10T06:45:35.927Z,388.77
2016-07-10T06:46:35.900Z,338.87
2016-07-10T06:47:35.899Z,291.08
2016-07-10T06:48:35.899Z,249.5
2016-07-10T06:49:35.897Z,227.45
2016-07-10T06:50:35.889Z,235.46
2016-07-10T06:51:35.893Z,250.71
2016-07-10T06:52:35.901Z,197.08
2016-07-10T06:53:35.897Z,150.93
2016-07-10T06:54:35.898Z,221.52
2016-07-10T06:55:35.906Z,173.73
2016-07-10T06:56:35.900Z,138.93
2016-07-10T06:57:35.909Z,113.85
2016-07-10T06:58:35.896Z,94.58
2016-07-10T06:59:35.906Z,80.36
2016-07-10T07:00:36.030Z,76.92
2016-07-10T07:01:35.933Z,77.16
2016-07-10T07:02:35.916Z,84.53
2016-07-10T07:03:35.920Z,92.62
2016-07-10T07:04:35.918Z,105.41
2016-07-10T07:05:35.935Z,121.5
2016-07-10T07:06:35.902Z,139.72
2016-07-10T07:07:35.920Z,156.58
2016-07-10T07:08:35.984Z,179.52
2016-07-10T07:09:35.933Z,202.99
2016-07-10T07:10:35.931Z,223.99
2016-07-10T07:11:35.935Z,244.98
2016-07-10T07:12:35.927Z,262.87
2016-07-10T07:13:35.947Z,277.73
2016-07-10T07:14:35.926Z,293.92
2016-07-10T07:15:35.919Z,314.58
2016-07-10T07:16:35.946Z,338.83
2016-07-10T07:17:35.924Z,358.55
2016-07-10T07:18:35.926Z,383.03
2016-07-10T07:19:35.924Z,413.83
2016-07-10T07:20:35.931Z,435.03
2016-07-10T07:21:35.931Z,457.12
2016-07-10T07:22:35.931Z,476.06
2016-07-10T07:23:35.934Z,488.26
2016-07-10T07:24:35.926Z,499.36
2016-07-10T07:25:35.946Z,516.89
2016-07-10T07:26:35.940Z,533.38
2016-07-10T07:27:35.944Z,542.49
2016-07-10T07:28:35.934Z,552.48
2016-07-10T07:29:35.944Z,570.73
2016-07-10T07:30:35.962Z,593.71
2016-07-10T07:31:35.948Z,605.44
2016-07-10T07:32:35.941Z,615.4
2016-07-10T07:33:35.941Z,623.53
2016-07-10T07:34:35.952Z,631.36
2016-07-10T07:35:35.959Z,636.4
2016-07-10T07:36:35.952Z,641.18
2016-07-10T07:37:35.975Z,645.25
2016-07-10T07:38:35.961Z,648.18
2016-07-10T07:39:35.968Z,652.94
2016-07-10T07:40:35.991Z,658.23
2016-07-10T07:41:35.959Z,665.33
2016-07-10T07:42:35.972Z,674.17
2016-07-10T07:43:35.969Z,681.58
2016-07-10T07:44:35.969Z,689.77
2016-07-10T07:45:35.972Z,694.32
2016-07-10T07:46:35.962Z,698.75
2016-07-10T07:47:35.980Z,700.31
2016-07-10T07:48:35.973Z,702.23
2016-07-10T07:49:35.963Z,705.5
2016-07-10T07:50:36.038Z,709.31
2016-07-10T07:51:35.994Z,710.64
2016-07-10T07:52:35.964Z,711.71
2016-07-10T07:53:35.972Z,711.17
2016-07-10T07:54:35.964Z,710.31
2016-07-10T07:55:35.973Z,710.26
2016-07-10T07:56:35.991Z,713.54
2016-07-10T07:57:35.977Z,717.3
2016-07-10T07:58:35.985Z,722.45
2016-07-10T07:59:35.992Z,725.96
2016-07-10T08:00:36.085Z,729.9
2016-07-10T08:01:36.029Z,733.47
2016-07-10T08:02:35.990Z,736.16
2016-07-10T08:03:35.986Z,736.8
2016-07-10T08:04:35.974Z,740.65
2016-07-10T08:05:35.970Z,746.79
2016-07-10T08:06:35.991Z,752.53
2016-07-10T08:07:35.988Z,756.49
2016-07-10T08:08:35.992Z,762.01
2016-07-10T08:09:35.984Z,765.59
2016-07-10T08:10:35.996Z,770.03
2016-07-10T08:11:35.980Z,775.81
2016-07-10T08:12:35.988Z,779.15
2016-07-10T08:13:35.992Z,781.55
2016-07-10T08:14:36.131Z,784.52
2016-07-10T08:15:35.990Z,787.54
2016-07-10T08:16:35.995Z,790.97
2016-07-10T08:17:35.994Z,793.49
2016-07-10T08:18:35.996Z,796.57
2016-07-10T08:19:35.994Z,799.05
2016-07-10T08:20:35.986Z,805.04
2016-07-10T08:21:35.995Z,809.13
2016-07-10T08:22:35.999Z,812.94
2016-07-10T08:23:35.998Z,817.18
2016-07-10T08:24:36.025Z,822.85
2016-07-10T08:25:36.011Z,827.43
2016-07-10T08:26:36.019Z,832.03
2016-07-10T08:27:36.051Z,835.66
2016-07-10T08:28:36.008Z,837.59
2016-07-10T08:29:36.011Z,839.31
2016-07-10T08:30:36.026Z,842.47
2016-07-10T08:31:36.024Z,844.4
2016-07-10T08:32:36.022Z,845.21
2016-07-10T08:33:36.026Z,846.12
2016-07-10T08:34:36.013Z,846.96
2016-07-10T08:35:36.014Z,849.93
2016-07-10T08:36:36.029Z,852.4
2016-07-10T08:37:36.017Z,854.12
2016-07-10T08:38:36.026Z,855.45
2016-07-10T08:39:36.026Z,856.55
2016-07-10T08:40:36.158Z,858.6
2016-07-10T08:41:36.014Z,860.27
2016-07-10T08:42:36.025Z,860.82
2016-07-10T08:43:36.092Z,863.76
2016-07-10T08:44:36.040Z,866.86
2016-07-10T08:45:36.088Z,868.24
2016-07-10T08:46:36.034Z,870.32
2016-07-10T08:47:36.043Z,872.53
2016-07-10T08:48:36.046Z,873.23
2016-07-10T08:49:36.033Z,874.19
2016-07-10T08:50:36.032Z,875.54
2016-07-10T08:51:36.037Z,875.54
2016-07-10T08:52:36.027Z,874.84
2016-07-10T08:53:36.152Z,873.83
2016-07-10T08:54:36.057Z,872.31
2016-07-10T08:55:36.091Z,870.92
2016-07-10T08:56:36.107Z,869.9
2016-07-10T08:57:36.035Z,868.5
2016-07-10T08:58:36.233Z,866.54
2016-07-10T08:59:36.145Z,864.7
2016-07-10T09:00:36.045Z,863.29
2016-07-10T09:01:36.049Z,861.88
2016-07-10T09:02:36.073Z,859.78
2016-07-10T09:03:36.036Z,859.6
2016-07-10T09:04:36.043Z,859.34
2016-07-10T09:05:36.079Z,859.72
2016-07-10T09:06:36.070Z,860.02
2016-07-10T09:07:36.150Z,859.03
2016-07-10T09:08:36.056Z,859.03
2016-07-10T09:09:36.075Z,858.01
2016-07-10T09:10:36.168Z,856.72
2016-07-10T09:11:36.064Z,855.83
2016-07-10T09:12:36.085Z,854.54
2016-07-10T09:13:36.057Z,851.59
2016-07-10T09:14:36.114Z,842.17
2016-07-10T09:15:36.118Z,831.51
2016-07-10T09:16:36.149Z,825.09
2016-07-10T09:17:36.275Z,816.44
2016-07-10T09:18:36.228Z,803.17
2016-07-10T09:19:36.104Z,789.31
2016-07-10T09:20:36.297Z,782.37
2016-07-10T09:21:36.146Z,778.88
2016-07-10T09:22:36.089Z,770.9
2016-07-10T09:23:36.087Z,757.06
2016-07-10T09:24:36.077Z,742.64
2016-07-10T09:25:36.066Z,732.97
2016-07-10T09:26:36.092Z,731.43
2016-07-10T09:27:36.087Z,736.12
2016-07-10T09:28:36.093Z,742.26
2016-07-10T09:29:36.087Z,745.1
2016-07-10T09:30:36.107Z,748.18
2016-07-10T09:31:36.082Z,755.07
2016-07-10T09:32:36.075Z,761.76
2016-07-10T09:33:36.099Z,765.3
2016-07-10T09:34:36.130Z,768.41
2016-07-10T09:35:36.081Z,769.98
2016-07-10T09:36:36.089Z,771.84
2016-07-10T09:37:36.096Z,774.46
2016-07-10T09:38:36.091Z,779.36
2016-07-10T09:39:36.076Z,779.66
2016-07-10T09:40:36.093Z,775.74
2016-07-10T09:41:36.094Z,773.16
2016-07-10T09:42:36.099Z,772.66
2016-07-10T09:43:36.093Z,772.98
2016-07-10T09:44:36.124Z,773.78
2016-07-10T09:45:36.099Z,771.04
2016-07-10T09:46:36.106Z,766.26
2016-07-10T09:47:36.090Z,761.53
2016-07-10T09:48:36.104Z,761.03
2016-07-10T09:49:36.342Z,761.88
2016-07-10T09:50:36.112Z,762.99
2016-07-10T09:51:36.102Z,763.27
2016-07-10T09:52:36.131Z,763.57
2016-07-10T09:53:36.099Z,763.25
2016-07-10T09:54:36.117Z,761.63
2016-07-10T09:55:36.121Z,760.45
2016-07-10T09:56:36.117Z,757.05
2016-07-10T09:57:36.103Z,755.06
2016-07-10T09:58:36.112Z,761.42
2016-07-10T09:59:36.116Z,762.73
2016-07-10T10:00:36.107Z,760.88
2016-07-10T10:01:36.112Z,757.98
2016-07-10T10:02:36.118Z,758.8
2016-07-10T10:03:36.114Z,758.74
2016-07-10T10:04:36.122Z,760.85
2016-07-10T10:05:36.122Z,762.02
2016-07-10T10:06:36.119Z,757.14
2016-07-10T10:07:36.154Z,744.79
2016-07-10T10:08:36.148Z,732.11
2016-07-10T10:09:36.156Z,720.62
2016-07-10T10:10:36.136Z,711.99
2016-07-10T10:11:36.146Z,702.51
2016-07-10T10:12:36.138Z,697.82
2016-07-10T10:13:36.142Z,694.68
2016-07-10T10:14:36.133Z,691.44
2016-07-10T10:15:36.136Z,689.3
2016-07-10T10:16:36.176Z,686.1
2016-07-10T10:17:36.150Z,684.66
2016-07-10T10:18:36.130Z,685.55
2016-07-10T10:19:36.133Z,683.81
2016-07-10T10:20:36.146Z,682.68
2016-07-10T10:21:36.135Z,682.36
2016-07-10T10:22:36.143Z,681.07
2016-07-10T10:23:36.150Z,684.08
2016-07-10T10:24:36.137Z,689.21
2016-07-10T10:25:36.153Z,691.85
2016-07-10T10:26:36.146Z,688.27
2016-07-10T10:27:36.141Z,688.1
2016-07-10T10:28:36.144Z,686.88
2016-07-10T10:29:36.159Z,681.5
2016-07-10T10:30:36.158Z,677.42
2016-07-10T10:31:36.126Z,672.05
2016-07-10T10:32:36.172Z,669.89
2016-07-10T10:33:36.159Z,665.73
2016-07-10T10:34:36.153Z,661.39
2016-07-10T10:35:36.168Z,659.39
2016-07-10T10:36:36.158Z,658.29
2016-07-10T10:37:36.154Z,656.81
2016-07-10T10:38:36.176Z,652.94
2016-07-10T10:39:36.165Z,647.8
2016-07-10T10:40:36.160Z,639.35
2016-07-10T10:41:36.204Z,630.53
2016-07-10T10:42:36.174Z,621.18
2016-07-10T10:43:36.237Z,613.64
2016-07-10T10:44:36.175Z,605.44
2016-07-10T10:45:36.185Z,593.55
2016-07-10T10:46:36.155Z,581.69
2016-07-10T10:47:36.171Z,571.31
2016-07-10T10:48:36.167Z,561.41
2016-07-10T10:49:36.174Z,553.26
2016-07-10T10:50:36.175Z,543.19
2016-07-10T10:51:36.184Z,533.33
2016-07-10T10:52:36.191Z,522.54
2016-07-10T10:53:36.183Z,513.27
2016-07-10T10:54:36.183Z,504.98
2016-07-10T10:55:36.179Z,500.36
2016-07-10T10:56:36.171Z,495.61
2016-07-10T10:57:36.188Z,493.49
2016-07-10T10:58:36.167Z,493.51
2016-07-10T10:59:36.174Z,489.56
2016-07-10T11:00:36.167Z,483.45
2016-07-10T11:01:36.179Z,480.53
2016-07-10T11:02:36.197Z,479.64
2016-07-10T11:03:36.210Z,479.24
2016-07-10T11:04:36.204Z,480.68
2016-07-10T11:05:36.189Z,479.42
2016-07-10T11:06:36.196Z,476.45
2016-07-10T11:07:36.192Z,473.72
2016-07-10T11:08:36.199Z,472.69
2016-07-10T11:09:36.191Z,470.07
2016-07-10T11:10:36.199Z,473.66
2016-07-10T11:11:36.206Z,473.85
2016-07-10T11:12:36.195Z,474.45
2016-07-10T11:13:36.187Z,476.58
2016-07-10T11:14:36.203Z,475.95
2016-07-10T11:15:36.212Z,474.68
2016-07-10T11:16:36.214Z,481.85
2016-07-10T11:17:36.216Z,488.97
2016-07-10T11:18:36.219Z,497.51
2016-07-10T11:19:36.197Z,508.52
2016-07-10T11:20:36.234Z,524.76
2016-07-10T11:21:36.219Z,540.73
2016-07-10T11:22:36.220Z,554.48
2016-07-10T11:23:36.197Z,566.19
2016-07-10T11:24:36.932Z,579.07
2016-07-10T11:25:36.225Z,597.12
2016-07-10T11:26:36.214Z,615.61
2016-07-10T11:27:36.218Z,632.87
2016-07-10T11:28:36.216Z,646.44
2016-07-10T11:29:36.222Z,656.67
2016-07-10T11:30:36.216Z,666.39
2016-07-10T11:31:36.219Z,676.59
2016-07-10T11:32:36.242Z,685.28
2016-07-10T11:33:36.222Z,695.77
2016-07-10T11:34:36.224Z,704.1
2016-07-10T11:35:36.226Z,709.96
2016-07-10T11:36:36.216Z,716.98
2016-07-10T11:37:36.220Z,721.72
2016-07-10T11:38:36.231Z,726.12
2016-07-10T11:39:36.233Z,731.02
2016-07-10T11:40:36.235Z,734.62
2016-07-10T11:41:36.230Z,738.5
2016-07-10T11:42:36.240Z,742.6
2016-07-10T11:43:36.228Z,744.59
2016-07-10T11:44:36.225Z,744.76
2016-07-10T11:45:36.229Z,741.44
2016-07-10T11:46:36.235Z,738.12
2016-07-10T11:47:36.242Z,736.42
2016-07-10T11:48:36.250Z,736.88
2016-07-10T11:49:36.263Z,737.02
2016-07-10T11:50:36.239Z,739.37
2016-07-10T11:51:36.283Z,740.56
2016-07-10T11:52:36.293Z,741.7
2016-07-10T11:53:36.247Z,745.2
2016-07-10T11:54:36.262Z,745.52
2016-07-10T11:55:36.271Z,744.5
2016-07-10T11:56:36.250Z,738.67
2016-07-10T11:57:36.247Z,730.34
2016-07-10T11:58:36.266Z,724.04
2016-07-10T11:59:36.250Z,716.03
2016-07-10T12:00:36.249Z,706.76
2016-07-10T12:01:36.270Z,699.31
2016-07-10T12:02:36.252Z,693.5
2016-07-10T12:03:36.252Z,688.58
2016-07-10T12:04:36.303Z,684.11
2016-07-10T12:05:36.289Z,681.77
2016-07-10T12:06:36.262Z,680.56
2016-07-10T12:07:36.254Z,678.04
2016-07-10T12:08:36.257Z,677.45
2016-07-10T12:09:36.284Z,677.79
2016-07-10T12:10:36.271Z,676.58
2016-07-10T12:11:36.270Z,674.8
2016-07-10T12:12:36.292Z,669.95
2016-07-10T12:13:36.279Z,662.24
2016-07-10T12:14:36.299Z,655.51
2016-07-10T12:15:36.267Z,652.71
2016-07-10T12:16:36.274Z,653.6
2016-07-10T12:17:36.276Z,654.12
2016-07-10T12:18:36.303Z,656.91